Time;durP1;ratioP1;P1;durP2;ratioP2;P2;SDS_P1;SDS_P2;PMS_P1;PMS_P2;Temp;Humidity;BMP_temperature;BMP_pressure;BME280_temperature;BME280_humidity;BME280_pressure;Samples;Min_cycle;Max_cycle;Signal;HPM_P1;HPM_P2
2022/11/08 00:01:47;;;;;;;73.75;36.95;;;;;;;1.83;100.00;98394.98;1713305;83;20963;-78
2022/11/08 00:04:14;;;;;;;83.37;41.42;;;;;;;1.80;100.00;98387.40;1713166;83;21149;-82
2022/11/08 00:14:53;;;;;;;64.37;32.98;;;;;;;1.76;100.00;98395.52;1713342;83;21504;-82
2022/11/08 00:17:20;;;;;;;66.72;33.30;;;;;;;1.73;100.00;98395.44;1713257;83;21114;-82
2022/11/08 00:19:46;;;;;;;60.00;29.63;;;;;;;1.74;100.00;98398.41;1713270;83;20993;-78
2022/11/08 00:22:12;;;;;;;56.37;30.72;;;;;;;1.76;100.00;98395.00;1713304;83;20972;-81
2022/11/08 00:24:38;;;;;;;51.65;28.73;;;;;;;1.79;100.00;98399.09;1713412;83;20882;-81
2022/11/08 00:27:07;;;;;;;50.40;30.05;;;;;;;1.84;100.00;98401.95;1703103;83;20886;-81
2022/11/08 00:29:34;;;;;;;;;;;;;;;1.84;100.00;98404.11;1715075;82;21226;-82
2022/11/08 00:32:02;;;;;;;51.68;25.88;;;;;;;1.84;100.00;98395.27;1702987;83;20167;-81
2022/11/08 00:34:28;;;;;;;46.45;25.10;;;;;;;1.86;100.00;98396.69;1713113;82;20995;-78
2022/11/08 00:36:54;;;;;;;50.55;25.72;;;;;;;1.81;100.00;98393.86;1713313;83;20863;-81
2022/11/08 00:39:20;;;;;;;48.70;26.70;;;;;;;1.81;100.00;98389.03;1713082;83;21065;-82
2022/11/08 00:41:45;;;;;;;43.63;25.17;;;;;;;1.84;100.00;98393.94;1713365;83;20979;-81
2022/11/08 00:44:11;;;;;;;38.83;22.10;;;;;;;1.88;100.00;98398.66;1712986;83;20918;-82
2022/11/08 00:46:37;;;;;;;48.68;23.60;;;;;;;1.93;100.00;98394.80;1713309;83;20895;-82
2022/11/08 00:49:05;;;;;;;50.88;24.37;;;;;;;2.00;100.00;98393.43;1713110;83;20988;-81
2022/11/08 00:51:31;;;;;;;58.40;31.05;;;;;;;2.02;100.00;98395.88;1713107;83;21451;-81
2022/11/08 00:53:57;;;;;;;51.53;27.75;;;;;;;2.00;100.00;98397.44;1712882;83;21126;-79
2022/11/08 00:56:23;;;;;;;53.85;29.52;;;;;;;1.97;100.00;98389.86;1713136;83;20922;-78
2022/11/08 00:58:49;;;;;;;57.88;29.37;;;;;;;1.89;100.00;98398.14;1713172;83;20864;-78
2022/11/08 01:01:18;;;;;;;49.55;27.48;;;;;;;1.83;100.00;98397.12;1713261;83;20923;-78
2022/11/08 01:03:45;;;;;;;53.23;27.65;;;;;;;1.80;100.00;98389.55;1713237;82;21006;-78
2022/11/08 01:06:12;;;;;;;49.80;27.52;;;;;;;1.79;100.00;98395.91;1713345;83;21228;-78
2022/11/08 01:08:38;;;;;;;45.83;25.12;;;;;;;1.81;100.00;98393.86;1712912;82;21015;-81
2022/11/08 01:11:07;;;;;;;48.42;25.95;;;;;;;1.85;100.00;98391.56;1713430;83;20896;-82
2022/11/08 01:13:33;;;;;;;;;;;;;;;1.80;100.00;98392.74;1715867;83;21042;-81
2022/11/08 01:16:06;;;;;;;41.98;23.98;;;;;;;1.77;100.00;98396.64;1713119;83;20218;-81
2022/11/08 01:18:32;;;;;;;46.18;24.80;;;;;;;1.79;100.00;98395.09;1712727;82;21145;-81
2022/11/08 01:20:58;;;;;;;49.30;22.93;;;;;;;1.82;100.00;98397.34;1713410;83;20886;-78
2022/11/08 01:23:24;;;;;;;44.30;24.70;;;;;;;1.84;100.00;98393.42;1713179;83;20901;-78
2022/11/08 01:25:50;;;;;;;46.77;25.52;;;;;;;1.84;100.00;98394.75;1713386;83;20960;-81
2022/11/08 01:28:16;;;;;;;47.10;25.77;;;;;;;1.82;100.00;98397.34;1713310;83;20874;-78
2022/11/08 01:30:42;;;;;;;48.63;26.62;;;;;;;1.78;100.00;98396.94;1711667;83;21556;-82
2022/11/08 01:33:08;;;;;;;47.67;26.42;;;;;;;1.74;100.00;98399.75;1698262;83;21062;-78
2022/11/08 01:35:34;;;;;;;42.70;25.80;;;;;;;1.75;100.00;98393.89;1698509;84;20961;-81
2022/11/08 01:38:00;;;;;;;35.90;21.00;;;;;;;1.73;100.00;98384.75;1678199;84;21041;-78
2022/11/08 01:40:26;;;;;;;43.58;23.90;;;;;;;1.68;100.00;98383.23;1698294;84;21014;-81
2022/11/08 01:42:52;;;;;;;43.25;22.73;;;;;;;1.64;100.00;98382.84;1698409;83;21126;-81
2022/11/08 01:46:10;;;;;;;35.35;20.43;;;;;;;1.64;100.00;98384.70;1698299;84;20957;-81
2022/11/08 01:48:38;;;;;;;34.78;18.85;;;;;;;1.66;100.00;98385.30;1698466;83;21081;-78
2022/11/08 01:51:04;;;;;;;35.50;19.32;;;;;;;1.70;100.00;98384.64;1698378;84;21057;-79
2022/11/08 01:53:30;;;;;;;31.00;18.70;;;;;;;1.74;100.00;98385.58;1698258;84;21037;-81
2022/11/08 01:55:56;;;;;;;34.00;17.67;;;;;;;1.79;100.00;98381.20;1698522;84;22009;-78
2022/11/08 01:58:25;;;;;;;31.93;16.95;;;;;;;1.84;100.00;98380.58;1698069;83;21142;-78
2022/11/08 02:00:51;;;;;;;34.40;17.87;;;;;;;1.90;100.00;98386.41;1698553;84;21037;-81
2022/11/08 02:03:17;;;;;;;31.48;19.15;;;;;;;1.94;100.00;98380.41;1698395;83;20938;-78
2022/11/08 02:05:43;;;;;;;37.48;19.27;;;;;;;1.94;100.00;98381.73;1698688;84;21025;-82
2022/11/08 02:08:37;;;;;;;33.00;19.30;;;;;;;1.95;100.00;98380.70;1698283;83;21125;-78
2022/11/08 02:11:03;;;;;;;33.18;17.27;;;;;;;1.93;100.00;98379.28;1698518;83;20974;-81
2022/11/08 02:13:31;;;;;;;40.52;23.38;;;;;;;1.84;100.00;98369.37;1698231;84;21018;-78
2022/11/08 02:15:57;;;;;;;38.05;21.33;;;;;;;1.80;100.00;98371.37;1698480;84;21069;-81
2022/11/08 02:18:26;;;;;;;37.00;22.35;;;;;;;1.75;100.00;98370.66;1698366;83;20882;-81
2022/11/08 02:21:17;;;;;;;40.03;22.60;;;;;;;1.72;100.00;98371.09;1709411;83;21084;-81
2022/11/08 02:23:49;;;;;;;46.48;24.20;;;;;;;1.68;100.00;98368.02;1688733;83;21013;-82
2022/11/08 02:26:16;;;;;;;44.03;24.63;;;;;;;1.60;100.00;98361.59;1713511;83;21029;-78
2022/11/08 02:28:45;;;;;;;42.83;25.37;;;;;;;1.53;100.00;98367.47;1713237;83;20997;-78
2022/11/08 02:31:15;;;;;;;49.98;24.43;;;;;;;1.51;100.00;98372.73;1708913;82;21501;-81
2022/11/08 02:33:42;;;;;;;36.42;19.92;;;;;;;1.47;100.00;98368.86;1698357;84;21036;-82
2022/11/08 02:36:15;;;;;;;41.45;21.93;;;;;;;1.47;100.00;98368.86;1698403;84;21500;-81
2022/11/08 02:38:46;;;;;;;39.58;22.17;;;;;;;1.46;100.00;98369.38;1698296;83;21564;-82
2022/11/08 02:41:12;;;;;;;39.67;23.12;;;;;;;1.46;100.00;98365.38;1698202;84;21021;-82
2022/11/08 02:43:39;;;;;;;42.20;24.02;;;;;;;1.46;100.00;98368.56;1698200;84;21017;-78
2022/11/08 02:46:06;;;;;;;44.33;23.83;;;;;;;1.34;100.00;98367.88;1698477;84;21132;-81
2022/11/08 02:48:33;;;;;;;49.05;23.83;;;;;;;1.24;100.00;98366.17;1698144;83;21061;-83
2022/11/08 02:51:00;;;;;;;46.65;24.98;;;;;;;1.18;100.00;98366.20;1698473;84;21040;-79
2022/11/08 02:53:27;;;;;;;37.23;20.97;;;;;;;1.16;100.00;98365.08;1698231;83;21100;-83
2022/11/08 02:55:54;;;;;;;48.35;23.73;;;;;;;1.15;100.00;98363.44;1698574;83;21453;-80
2022/11/08 02:58:21;;;;;;;51.58;25.17;;;;;;;1.12;100.00;98369.21;1698310;83;21030;-81
2022/11/08 03:00:47;;;;;;;40.75;21.90;;;;;;;1.08;100.00;98369.31;1698424;83;21005;-84
2022/11/08 03:03:14;;;;;;;31.00;18.82;;;;;;;1.08;100.00;98367.98;1698257;83;21469;-84
2022/11/08 03:05:42;;;;;;;27.60;18.02;;;;;;;1.07;100.00;98363.67;1698524;83;21010;-81
2022/11/08 03:08:09;;;;;;;34.90;17.50;;;;;;;1.11;100.00;98370.22;1698269;84;21029;-80
2022/11/08 03:10:36;;;;;;;33.18;19.40;;;;;;;1.16;100.00;98363.73;1698190;84;21023;-80
2022/11/08 03:13:03;;;;;;;32.45;18.80;;;;;;;1.23;100.00;98363.20;1698308;83;21049;-84
2022/11/08 03:15:31;;;;;;;28.62;17.05;;;;;;;1.31;100.00;98364.30;1698153;84;21017;-84
2022/11/08 03:17:58;;;;;;;35.73;19.32;;;;;;;1.34;100.00;98358.53;1698341;83;22057;-80
2022/11/08 03:20:25;;;;;;;29.40;16.75;;;;;;;1.35;100.00;98358.01;1705237;83;21455;-83
2022/11/08 03:22:58;;;;;;;29.42;18.00;;;;;;;1.37;100.00;98357.31;1711643;82;21057;-84
2022/11/08 03:25:25;;;;;;;37.93;18.30;;;;;;;1.33;100.00;98358.23;1689588;83;21039;-84
2022/11/08 03:27:52;;;;;;;32.63;17.40;;;;;;;1.29;100.00;98361.55;1711748;82;21450;-81
2022/11/08 03:30:19;;;;;;;26.97;15.75;;;;;;;1.31;100.00;98361.63;1711548;83;21014;-81
2022/11/08 03:32:46;;;;;;;27.55;17.80;;;;;;;1.29;100.00;98357.03;1713222;83;20990;-83
2022/11/08 03:35:13;;;;;;;33.13;17.80;;;;;;;1.26;100.00;98361.44;1713136;83;21002;-81
2022/11/08 03:37:40;;;;;;;30.02;17.35;;;;;;;1.26;100.00;98356.61;1713153;83;21451;-84
2022/11/08 03:40:10;;;;;;;30.85;17.62;;;;;;;1.25;100.00;98361.13;1713158;83;21061;-81
2022/11/08 03:42:37;;;;;;;33.25;17.60;;;;;;;1.23;100.00;98358.38;1713509;83;20991;-84
2022/11/08 03:45:05;;;;;;;26.25;16.23;;;;;;;1.17;100.00;98361.38;1713351;83;20995;-84
2022/11/08 03:47:39;;;;;;;29.18;15.50;;;;;;;1.18;100.00;98362.19;1713450;83;21904;-80
2022/11/08 03:50:06;;;;;;;23.73;14.30;;;;;;;1.13;100.00;98363.66;1712901;83;21011;-84
2022/11/08 03:52:41;;;;;;;31.55;14.70;;;;;;;1.11;100.00;98365.72;1713182;83;21058;-83
2022/11/08 03:55:09;;;;;;;30.72;17.17;;;;;;;1.10;100.00;98359.23;1713178;82;21446;-80
2022/11/08 03:57:37;;;;;;;26.37;15.88;;;;;;;1.09;100.00;98367.76;1713411;83;21074;-80
2022/11/08 04:00:06;;;;;;;36.25;18.12;;;;;;;1.07;100.00;98372.50;1703006;83;20991;-84
2022/11/08 04:02:33;;;;;;;;;;;;;;;1.05;100.00;98367.08;1715883;83;20987;-84
2022/11/08 04:05:00;;;;;;;28.10;16.07;;;;;;;1.01;100.00;98372.51;1713210;83;20471;-80
2022/11/08 04:07:27;;;;;;;36.50;20.12;;;;;;;0.99;100.00;98369.23;1713301;83;21066;-80
2022/11/08 04:09:54;;;;;;;34.70;20.15;;;;;;;0.91;100.00;98368.94;1713308;82;21030;-83
2022/11/08 04:15:16;;;;;;;27.80;16.48;;;;;;;0.90;100.00;98369.16;1713313;83;20991;-81
2022/11/08 04:23:16;;;;;;;35.17;19.98;;;;;;;0.82;100.00;98366.20;1718476;83;21535;-83
2022/11/08 04:25:44;;;;;;;33.08;18.10;;;;;;;0.78;100.00;98367.14;1718349;83;21468;-84
2022/11/08 04:28:11;;;;;;;28.40;17.35;;;;;;;0.81;100.00;98373.38;1718252;83;20972;-80
2022/11/08 04:30:37;;;;;;;26.12;17.65;;;;;;;0.80;100.00;98368.27;1717952;83;21007;-80
2022/11/08 04:33:04;;;;;;;29.72;17.57;;;;;;;0.77;100.00;98373.51;1713281;83;21015;-83
2022/11/08 04:35:31;;;;;;;36.08;17.92;;;;;;;0.81;100.00;98369.38;1713157;82;21384;-80
2022/11/08 04:38:00;;;;;;;28.10;16.87;;;;;;;0.87;100.00;98369.59;1713378;83;21195;-83
2022/11/08 04:40:29;;;;;;;32.63;18.15;;;;;;;0.87;100.00;98363.73;1712876;82;21054;-80
2022/11/08 04:42:56;;;;;;;33.35;18.92;;;;;;;0.87;100.00;98365.59;1713278;83;21015;-80
2022/11/08 04:45:23;;;;;;;27.70;17.90;;;;;;;0.85;100.00;98363.10;1713190;83;20979;-83
2022/11/08 04:47:50;;;;;;;29.23;17.50;;;;;;;0.82;100.00;98359.53;1713387;83;21546;-81
2022/11/08 04:50:17;;;;;;;35.78;19.35;;;;;;;0.77;100.00;98357.98;1713243;83;21042;-80
2022/11/08 04:52:52;;;;;;;33.08;17.70;;;;;;;0.75;100.00;98354.20;1713256;83;21073;-80
2022/11/08 04:55:20;;;;;;;29.05;18.57;;;;;;;0.74;100.00;98359.75;1703724;83;21049;-83
2022/11/08 04:57:47;;;;;;;31.93;18.57;;;;;;;0.75;100.00;98360.05;1713334;83;20990;-81
2022/11/08 05:00:15;;;;;;;29.45;18.82;;;;;;;0.76;100.00;98358.50;1711544;82;21069;-84
2022/11/08 05:02:42;;;;;;;29.40;16.97;;;;;;;0.79;100.00;98355.95;1711825;82;21077;-84
2022/11/08 05:05:09;;;;;;;30.45;17.32;;;;;;;0.79;100.00;98350.62;1711550;83;21005;-81
2022/11/08 05:07:36;;;;;;;28.17;17.48;;;;;;;0.77;100.00;98356.17;1711815;82;20998;-84
2022/11/08 05:10:04;;;;;;;22.32;14.50;;;;;;;0.77;100.00;98357.98;1711781;83;21468;-82
2022/11/08 05:12:31;;;;;;;22.80;14.50;;;;;;;0.77;100.00;98353.98;1711677;82;21038;-83
2022/11/08 05:14:57;;;;;;;36.40;20.57;;;;;;;0.87;100.00;98355.73;1711803;83;22035;-81
2022/11/08 05:17:24;;;;;;;27.48;14.95;;;;;;;0.95;100.00;98352.84;1711829;82;21176;-83
2022/11/08 05:25:22;;;;;;;24.35;14.38;;;;;;;1.00;100.00;98350.34;1713378;83;21022;-81
2022/11/08 05:27:49;;;;;;;25.17;13.88;;;;;;;1.06;100.00;98355.36;1713174;82;21545;-83
2022/11/08 05:30:16;;;;;;;23.30;13.80;;;;;;;1.07;100.00;98355.66;1713128;83;20994;-83
2022/11/08 05:32:43;;;;;;;34.53;15.93;;;;;;;1.07;100.00;98360.48;1713201;83;21538;-80
2022/11/08 05:35:10;;;;;;;23.10;14.68;;;;;;;1.10;100.00;98355.23;1713368;83;21011;-80
2022/11/08 05:37:40;;;;;;;22.17;12.40;;;;;;;1.11;100.00;98367.55;1713485;83;21003;-83
2022/11/08 05:40:10;;;;;;;27.85;13.75;;;;;;;1.13;100.00;98370.84;1713194;83;21003;-84
2022/11/08 05:42:37;;;;;;;29.25;14.07;;;;;;;1.12;100.00;98375.88;1713158;82;21062;-80
2022/11/08 05:45:05;;;;;;;26.17;15.13;;;;;;;1.09;100.00;98374.43;1713266;83;21058;-80
2022/11/08 05:47:31;;;;;;;37.48;17.55;;;;;;;1.09;100.00;98376.28;1713269;83;21602;-83
2022/11/08 05:49:58;;;;;;;49.03;22.17;;;;;;;1.08;100.00;98375.47;1713227;83;20999;-83
2022/11/08 05:52:25;;;;;;;37.93;17.82;;;;;;;1.04;100.00;98374.27;1713364;83;21063;-80
2022/11/08 05:54:52;;;;;;;35.80;24.92;;;;;;;0.98;100.00;98368.42;1713244;83;21050;-81
2022/11/08 05:57:20;;;;;;;41.60;21.80;;;;;;;0.92;100.00;98377.77;1713014;83;21502;-81
2022/11/08 05:59:47;;;;;;;38.27;18.53;;;;;;;0.86;100.00;98377.29;1711281;83;21014;-83
2022/11/08 06:02:16;;;;;;;40.63;17.75;;;;;;;0.85;100.00;98381.78;1713204;82;20989;-80
2022/11/08 06:04:43;;;;;;;49.75;22.82;;;;;;;0.84;100.00;98382.30;1705284;83;21529;-80
2022/11/08 06:07:10;;;;;;;42.00;19.32;;;;;;;0.86;100.00;98383.45;1691943;83;21087;-80
2022/11/08 06:09:37;;;;;;;45.88;22.98;;;;;;;0.86;100.00;98382.11;1702020;83;21036;-81
2022/11/08 06:12:04;;;;;;;40.78;19.70;;;;;;;0.84;100.00;98386.30;1713271;83;21017;-80
2022/11/08 06:14:31;;;;;;;38.17;19.85;;;;;;;0.83;100.00;98387.33;1713291;83;21128;-83
2022/11/08 06:16:58;;;;;;;45.10;20.85;;;;;;;0.82;100.00;98383.02;1712949;83;21035;-83
2022/11/08 06:19:25;;;;;;;38.95;17.77;;;;;;;0.81;100.00;98380.57;1709320;83;21045;-80
2022/11/08 06:21:52;;;;;;;30.25;16.12;;;;;;;0.83;100.00;98386.51;1685966;83;21024;-80
2022/11/08 06:24:19;;;;;;;27.27;14.65;;;;;;;0.84;100.00;98388.97;1688739;85;21107;-84
2022/11/08 06:26:46;;;;;;;37.50;16.93;;;;;;;0.89;100.00;98388.87;1701263;83;21024;-83
2022/11/08 06:29:13;;;;;;;33.83;17.02;;;;;;;0.94;100.00;98389.05;1683045;83;21525;-83
2022/11/08 06:31:40;;;;;;;35.33;16.95;;;;;;;0.96;100.00;98387.83;1700712;82;21018;-84
2022/11/08 06:34:07;;;;;;;29.67;17.27;;;;;;;0.97;100.00;98386.80;1713140;82;21009;-84
2022/11/08 06:36:34;;;;;;;29.55;16.95;;;;;;;1.04;100.00;98387.61;1713248;82;21036;-80
2022/11/08 06:39:01;;;;;;;34.75;16.48;;;;;;;1.12;100.00;98391.38;1701583;83;21065;-81
2022/11/08 06:41:28;;;;;;;30.45;17.32;;;;;;;1.24;100.00;98393.39;1712485;82;21006;-80
2022/11/08 06:43:55;;;;;;;33.65;20.32;;;;;;;1.51;100.00;98386.91;1720976;82;21029;-84
2022/11/08 06:46:22;;;;;;;28.52;17.45;;;;;;;1.73;100.00;98383.42;1718285;82;21033;-82
2022/11/08 06:48:49;;;;;;;36.23;19.23;;;;;;;2.25;100.00;98386.27;1724776;80;21079;-82
2022/11/08 06:51:16;;;;;;;35.15;18.12;;;;;;;2.51;100.00;98380.41;1706396;82;21373;-79
2022/11/08 06:53:43;;;;;;;33.40;19.90;;;;;;;2.61;100.00;98386.59;1702444;82;21197;-82
2022/11/08 06:56:10;;;;;;;34.73;21.02;;;;;;;2.71;100.00;98388.24;1702816;82;21031;-82
2022/11/08 06:58:37;;;;;;;35.58;19.37;;;;;;;2.67;100.00;98389.22;1709477;82;20992;-78
2022/11/08 07:01:05;;;;;;;33.55;21.33;;;;;;;2.62;100.00;98393.05;1705221;82;21020;-78
2022/11/08 07:03:32;;;;;;;45.23;23.30;;;;;;;2.49;100.00;98381.97;1661853;85;20995;-78
2022/11/08 07:06:05;;;;;;;44.05;24.27;;;;;;;2.43;100.00;98382.02;1707537;82;21144;-78
2022/11/08 07:08:33;;;;;;;51.48;25.17;;;;;;;2.39;100.00;98382.95;1717493;82;21013;-81
2022/11/08 07:10:59;;;;;;;39.23;23.02;;;;;;;2.41;100.00;98384.09;1703630;82;21132;-78
2022/11/08 07:13:26;;;;;;;33.20;19.40;;;;;;;2.45;100.00;98385.28;1707476;82;21014;-82
2022/11/08 07:15:58;;;;;;;33.30;19.52;;;;;;;2.42;100.00;98382.53;1701789;82;20976;-82
2022/11/08 07:18:25;;;;;;;33.38;20.97;;;;;;;2.40;100.00;98389.97;1728786;80;21546;-79
2022/11/08 07:20:52;;;;;;;36.48;21.60;;;;;;;2.45;100.00;98387.95;1703710;82;21388;-82
2022/11/08 07:23:19;;;;;;;29.50;18.70;;;;;;;2.52;100.00;98391.40;1716673;82;21027;-82
2022/11/08 07:25:46;;;;;;;31.33;19.10;;;;;;;2.59;100.00;98392.69;1694248;82;21103;-83
2022/11/08 07:28:16;;;;;;;34.50;19.25;;;;;;;2.67;100.00;98391.89;1700565;82;21073;-82
2022/11/08 07:30:44;;;;;;;38.08;23.10;;;;;;;2.74;100.00;98384.63;1702127;82;21039;-82
2022/11/08 07:33:12;;;;;;;251.82;124.02;;;;;;;2.82;100.00;98387.54;1697539;82;21052;-78
2022/11/08 07:35:39;;;;;;;473.13;253.58;;;;;;;2.90;100.00;98382.39;1699508;82;21029;-82
2022/11/08 07:38:05;;;;;;;149.35;85.12;;;;;;;3.00;100.00;98388.89;1705129;83;21069;-82
2022/11/08 07:40:34;;;;;;;103.85;62.67;;;;;;;3.09;100.00;98384.88;1704038;83;21021;-82
2022/11/08 07:43:01;;;;;;;68.13;43.83;;;;;;;3.20;100.00;98384.66;1703147;82;21404;-81
2022/11/08 07:45:28;;;;;;;39.23;26.05;;;;;;;3.31;100.00;98383.08;1705763;82;21444;-82
2022/11/08 07:48:00;;;;;;;91.45;51.70;;;;;;;3.43;100.00;98384.51;1698069;82;21031;-78
2022/11/08 07:50:27;;;;;;;98.15;64.27;;;;;;;3.53;100.00;98376.75;1707456;82;21017;-79
2022/11/08 07:52:55;;;;;;;34.03;23.87;;;;;;;3.63;100.00;98377.84;1711481;82;21424;-81
2022/11/08 07:55:21;;;;;;;31.87;20.17;;;;;;;3.75;100.00;98371.70;1687418;83;21216;-79
2022/11/08 07:57:48;;;;;;;38.83;27.42;;;;;;;3.87;100.00;98376.08;1706883;82;21115;-79
2022/11/08 08:00:16;;;;;;;28.23;16.67;;;;;;;4.01;100.00;98371.85;1709340;83;21017;-82
2022/11/08 08:02:42;;;;;;;19.80;13.83;;;;;;;4.12;100.00;98372.43;1702102;82;21051;-82
2022/11/08 08:05:10;;;;;;;34.35;25.02;;;;;;;4.23;100.00;98366.27;1700888;82;21174;-82
2022/11/08 08:07:36;;;;;;;21.17;14.75;;;;;;;4.36;100.00;98373.27;1703490;82;21009;-79
2022/11/08 08:10:04;;;;;;;19.87;11.35;;;;;;;4.47;100.00;98371.97;1710003;82;21076;-79
2022/11/08 08:12:31;;;;;;;19.27;12.35;;;;;;;4.61;100.00;98367.70;1707501;82;21021;-78
2022/11/08 08:14:58;;;;;;;12.45;9.93;;;;;;;4.75;100.00;98371.80;1708893;83;21522;-79
2022/11/08 08:17:25;;;;;;;22.77;11.97;;;;;;;4.87;100.00;98360.55;1710611;82;21085;-79
2022/11/08 08:19:51;;;;;;;19.48;11.33;;;;;;;5.01;100.00;98365.95;1698480;83;20997;-82
2022/11/08 08:22:18;;;;;;;36.35;22.15;;;;;;;5.14;100.00;98362.73;1704247;82;21014;-82
2022/11/08 08:24:45;;;;;;;26.40;12.43;;;;;;;5.30;100.00;98364.17;1706388;83;21048;-82
2022/11/08 08:27:12;;;;;;;22.65;14.20;;;;;;;5.45;100.00;98362.30;1710066;82;21384;-82
2022/11/08 08:29:39;;;;;;;22.70;15.63;;;;;;;5.59;100.00;98356.95;1708731;83;21099;-82
2022/11/08 08:32:06;;;;;;;24.95;17.48;;;;;;;5.72;100.00;98353.14;1699726;82;21039;-83
2022/11/08 08:34:33;;;;;;;16.57;12.50;;;;;;;5.86;100.00;98350.45;1696639;83;21045;-83
2022/11/08 08:36:59;;;;;;;23.45;15.30;;;;;;;6.00;100.00;98351.55;1697644;82;21014;-79
2022/11/08 08:39:26;;;;;;;32.13;17.17;;;;;;;6.13;100.00;98343.16;1709903;83;21042;-82
2022/11/08 08:41:53;;;;;;;29.27;18.57;;;;;;;6.32;100.00;98347.24;1706119;82;21489;-79
2022/11/08 08:44:20;;;;;;;26.48;16.48;;;;;;;6.49;100.00;98337.83;1695945;82;21229;-78
2022/11/08 08:46:47;;;;;;;48.45;28.98;;;;;;;6.69;100.00;98344.07;1691362;82;20966;-79
2022/11/08 08:49:14;;;;;;;31.00;20.40;;;;;;;6.86;100.00;98334.63;1709827;82;21100;-79
2022/11/08 08:51:41;;;;;;;26.27;15.85;;;;;;;7.02;100.00;98334.59;1705763;83;21044;-79
2022/11/08 08:54:08;;;;;;;23.47;14.28;;;;;;;7.21;100.00;98333.75;1693360;83;21013;-79
2022/11/08 08:56:35;;;;;;;23.83;16.70;;;;;;;7.35;100.00;98336.36;1704806;82;21714;-79
2022/11/08 08:59:02;;;;;;;22.07;15.55;;;;;;;7.44;100.00;98325.14;1699349;83;21434;-79
2022/11/08 09:01:29;;;;;;;25.77;15.60;;;;;;;7.56;100.00;98327.97;1712314;83;21189;-83
2022/11/08 09:03:57;;;;;;;20.82;13.83;;;;;;;7.75;100.00;98329.79;1702497;82;20994;-79
2022/11/08 09:06:24;;;;;;;17.82;12.82;;;;;;;7.92;100.00;98329.69;1699074;83;21138;-79
2022/11/08 09:08:51;;;;;;;21.10;12.47;;;;;;;8.08;100.00;98332.82;1688133;83;21843;-79
2022/11/08 09:11:18;;;;;;;21.10;12.70;;;;;;;8.16;100.00;98326.14;1697332;83;21072;-83
2022/11/08 09:13:45;;;;;;;54.25;26.12;;;;;;;8.33;100.00;98329.53;1685324;82;21059;-83
2022/11/08 09:16:13;;;;;;;120.17;70.67;;;;;;;8.54;100.00;98322.42;1710368;82;21569;-83
2022/11/08 09:18:40;;;;;;;32.00;21.93;;;;;;;8.70;100.00;98328.75;1696219;82;21126;-83
2022/11/08 09:21:07;;;;;;;43.63;22.35;;;;;;;8.86;100.00;98328.32;1670271;85;21652;-79
2022/11/08 09:23:34;;;;;;;54.03;21.65;;;;;;;9.02;100.00;98322.75;1703752;82;21076;-83
2022/11/08 09:26:03;;;;;;;38.80;17.20;;;;;;;9.25;100.00;98326.12;1705591;82;21106;-79
2022/11/08 09:28:32;;;;;;;31.27;13.35;;;;;;;9.48;100.00;98310.77;1691087;83;21124;-79
2022/11/08 09:31:09;;;;;;;27.35;16.17;;;;;;;9.64;100.00;98319.75;1714439;82;20969;-79
2022/11/08 09:33:37;;;;;;;24.27;12.03;;;;;;;9.80;100.00;98316.55;1703644;82;21778;-79
2022/11/08 09:36:05;;;;;;;18.93;10.73;;;;;;;9.99;100.00;98318.21;1691286;83;21135;-83
2022/11/08 09:38:32;;;;;;;19.27;9.98;;;;;;;10.12;100.00;98313.09;1695179;83;20997;-83
2022/11/08 09:41:37;;;;;;;289.02;183.60;;;;;;;10.20;100.00;98317.17;1691290;83;22258;-79
2022/11/08 09:44:13;;;;;;;100.60;71.80;;;;;;;10.32;100.00;98312.31;1692781;82;21127;-79
2022/11/08 09:46:56;;;;;;;34.30;21.48;;;;;;;10.51;100.00;98310.41;1685456;83;21879;-80
2022/11/08 09:49:34;;;;;;;19.00;11.68;;;;;;;10.63;100.00;98303.64;1694099;82;21056;-83
2022/11/08 09:52:03;;;;;;;13.10;9.28;;;;;;;10.74;100.00;98304.44;1697025;82;21030;-79
2022/11/08 09:54:38;;;;;;;15.33;7.97;;;;;;;10.90;100.00;98304.67;1711784;82;21087;-83
2022/11/08 09:57:05;;;;;;;24.32;12.07;;;;;;;11.08;100.00;98304.62;1690440;83;21370;-79
2022/11/08 09:59:37;;;;;;;44.00;25.90;;;;;;;11.30;100.00;98305.11;1701040;82;21033;-83
2022/11/08 10:02:22;;;;;;;26.77;14.65;;;;;;;11.43;100.00;98304.23;1710364;83;21458;-79
2022/11/08 10:04:59;;;;;;;15.08;8.85;;;;;;;11.47;100.00;98304.77;1692561;83;21524;-79
2022/11/08 10:08:03;;;;;;;19.12;7.95;;;;;;;11.49;100.00;98302.58;1704499;82;21041;-79
2022/11/08 10:11:18;;;;;;;11.83;7.28;;;;;;;11.58;100.00;98298.73;1705221;82;21573;-79
2022/11/08 10:14:14;;;;;;;15.78;6.70;;;;;;;11.79;100.00;98298.06;1705172;82;21160;-80
2022/11/08 10:17:10;;;;;;;10.93;5.78;;;;;;;11.90;100.00;98292.08;1702639;83;21095;-79
2022/11/08 10:20:06;;;;;;;15.70;6.53;;;;;;;11.95;100.00;98292.03;1684811;82;22115;-79
2022/11/08 10:22:58;;;;;;;9.13;5.20;;;;;;;11.96;100.00;98287.67;1699490;82;21085;-79
2022/11/08 10:25:42;;;;;;;8.65;4.92;;;;;;;12.06;100.00;98276.76;1702326;82;21058;-83
2022/11/08 10:28:09;;;;;;;8.85;5.12;;;;;;;12.23;100.00;98276.91;1703421;82;21586;-83
2022/11/08 10:30:38;;;;;;;8.33;5.30;;;;;;;12.27;100.00;98272.52;1700987;82;21568;-80
2022/11/08 10:33:20;;;;;;;11.18;5.25;;;;;;;12.37;100.00;98269.16;1704866;82;21106;-79
2022/11/08 10:35:54;;;;;;;13.93;5.80;;;;;;;12.48;100.00;98260.94;1697743;82;21033;-79
2022/11/08 10:38:24;;;;;;;12.10;6.12;;;;;;;12.55;100.00;98258.12;1700061;82;21119;-79
2022/11/08 10:40:59;;;;;;;12.25;5.58;;;;;;;12.61;100.00;98256.17;1657393;83;21510;-84
2022/11/08 10:43:35;;;;;;;7.78;4.42;;;;;;;12.64;100.00;98265.11;1703570;82;20977;-83
2022/11/08 10:46:03;;;;;;;10.72;4.75;;;;;;;12.75;100.00;98258.48;1687283;83;21477;-83
2022/11/08 10:48:33;;;;;;;8.90;5.00;;;;;;;12.77;100.00;98257.64;1688125;83;21390;-79
2022/11/08 10:51:00;;;;;;;6.65;3.87;;;;;;;12.77;100.00;98259.00;1698537;82;21596;-79
2022/11/08 10:53:28;;;;;;;8.60;4.62;;;;;;;12.87;99.75;98249.38;1701950;82;21079;-79
2022/11/08 10:56:03;;;;;;;;;;;;;;;12.87;100.00;98252.09;1712534;83;21009;-80
2022/11/08 10:58:38;;;;;;;8.35;4.08;;;;;;;12.90;100.00;98247.98;1705958;82;20724;-79
2022/11/08 11:01:17;;;;;;;6.78;4.12;;;;;;;12.93;100.00;98242.78;1706576;83;21086;-83
2022/11/08 11:03:44;;;;;;;;;;;;;;;13.02;99.38;98236.70;1687538;83;21038;-83
2022/11/08 11:06:31;;;;;;;5.60;2.58;;;;;;;13.21;97.92;98238.39;1688906;83;21617;-83
2022/11/08 11:09:01;;;;;;;3.92;1.82;;;;;;;13.34;98.44;98242.33;1645799;85;21545;-79
2022/11/08 11:11:35;;;;;;;4.80;2.05;;;;;;;13.46;94.31;98226.92;1696985;83;21002;-79
2022/11/08 11:14:15;;;;;;;2.90;2.00;;;;;;;13.55;95.23;98221.08;1699343;83;21519;-82
2022/11/08 11:17:02;;;;;;;5.30;2.45;;;;;;;13.68;95.64;98222.27;1707858;82;21057;-82
2022/11/08 11:19:29;;;;;;;5.22;2.00;;;;;;;13.78;95.03;98216.11;1701177;83;21164;-80
2022/11/08 11:22:05;;;;;;;5.05;2.30;;;;;;;13.86;95.03;98216.00;1702120;83;21055;-83
2022/11/08 11:24:45;;;;;;;4.50;2.10;;;;;;;13.89;95.15;98210.50;1696500;82;21453;-82
2022/11/08 11:27:33;;;;;;;2.65;1.50;;;;;;;13.90;91.38;98210.20;1645726;85;21056;-82
2022/11/08 11:30:29;;;;;;;6.12;2.02;;;;;;;13.95;90.25;98206.05;1695830;83;21071;-79
2022/11/08 11:33:07;;;;;;;2.95;1.85;;;;;;;14.00;92.74;98210.03;1698162;83;21032;-82
2022/11/08 11:35:48;;;;;;;3.40;1.80;;;;;;;14.02;93.41;98205.67;1700849;82;21040;-82
2022/11/08 11:38:38;;;;;;;3.60;2.00;;;;;;;14.04;91.13;98204.27;1705154;81;21103;-82
2022/11/08 11:41:20;;;;;;;3.83;1.92;;;;;;;14.05;92.37;98202.34;1698434;82;21059;-80
2022/11/08 11:44:08;;;;;;;4.92;2.30;;;;;;;14.03;86.21;98201.28;1684073;81;22291;-80
2022/11/08 11:47:01;;;;;;;4.57;2.63;;;;;;;14.09;91.30;98201.98;1687763;83;21032;-82
2022/11/08 11:49:29;;;;;;;17.60;3.25;;;;;;;14.09;91.30;98201.98;1691791;82;22134;-80
2022/11/08 11:51:56;;;;;;;4.90;3.33;;;;;;;14.07;89.59;98196.03;1700380;82;21074;-83
2022/11/08 11:54:30;;;;;;;3.58;2.37;;;;;;;14.09;81.67;98193.81;1704119;82;21044;-83